createdAt,value
2019-04-28T00:01:21.099Z,7.90
2019-04-28T00:03:48.516Z,7.90
2019-04-28T00:06:15.635Z,7.90
2019-04-28T00:08:42.974Z,7.80
2019-04-28T00:11:11.737Z,7.80
2019-04-28T00:13:39.115Z,7.80
2019-04-28T00:16:07.824Z,7.90
2019-04-28T00:18:35.277Z,8.00
2019-04-28T00:23:55.778Z,8.00
2019-04-28T00:26:24.795Z,8.00
2019-04-28T00:28:52.015Z,8.00
2019-04-28T00:31:21.229Z,8.10
2019-04-28T00:33:48.574Z,8.10
2019-04-28T00:36:15.725Z,8.10
2019-04-28T00:38:43.075Z,8.10
2019-04-28T00:41:11.015Z,8.10
2019-04-28T00:43:41.688Z,8.10
2019-04-28T00:46:10.794Z,8.10
2019-04-28T00:48:38.774Z,8.10
2019-04-28T00:51:06.175Z,8.00
2019-04-28T00:53:34.583Z,8.00
2019-04-28T00:56:02.266Z,8.10
2019-04-28T00:58:31.830Z,8.10
2019-04-28T01:01:07.376Z,8.10
2019-04-28T01:03:34.535Z,8.20
2019-04-28T01:06:01.978Z,8.20
2019-04-28T01:08:30.870Z,8.20
2019-04-28T01:10:58.571Z,8.20
2019-04-28T01:13:25.794Z,8.20
2019-04-28T01:15:59.406Z,8.20
2019-04-28T01:18:40.555Z,8.30
2019-04-28T01:21:08.040Z,8.30
2019-04-28T01:23:35.275Z,8.30
2019-04-28T01:26:02.534Z,8.30
2019-04-28T01:28:29.822Z,8.20
2019-04-28T01:31:09.540Z,8.30
2019-04-28T01:33:53.975Z,8.30
2019-04-28T01:36:21.440Z,8.40
2019-04-28T01:38:50.073Z,8.40
2019-04-28T01:41:19.712Z,8.50
2019-04-28T01:43:46.897Z,8.40
2019-04-28T01:46:14.418Z,8.40
2019-04-28T01:48:41.776Z,8.40
2019-04-28T01:51:09.515Z,8.40
2019-04-28T01:53:37.008Z,8.40
2019-04-28T01:56:04.134Z,8.40
2019-04-28T01:58:33.136Z,8.40
2019-04-28T02:01:00.535Z,8.30
2019-04-28T02:03:27.955Z,8.30
2019-04-28T02:05:55.715Z,8.30
2019-04-28T02:08:22.875Z,8.20
2019-04-28T02:10:50.335Z,8.20
2019-04-28T02:13:19.734Z,8.20
2019-04-28T02:15:47.114Z,8.20
2019-04-28T02:18:14.155Z,8.20
2019-04-28T02:20:43.315Z,8.10
2019-04-28T02:23:16.993Z,8.10
2019-04-28T02:25:44.154Z,8.20
2019-04-28T02:28:12.654Z,8.20
2019-04-28T02:30:48.619Z,8.20
2019-04-28T02:33:11.292Z,8.30
2019-04-28T02:35:41.773Z,8.30
2019-04-28T02:38:11.380Z,8.30
2019-04-28T02:40:40.605Z,8.40
2019-04-28T02:43:11.497Z,8.40
2019-04-28T02:45:41.285Z,8.40
2019-04-28T02:48:11.152Z,8.40
2019-04-28T02:50:45.924Z,8.40
2019-04-28T02:53:14.879Z,8.40
2019-04-28T02:55:41.955Z,8.40
2019-04-28T02:58:10.731Z,8.40
2019-04-28T03:00:37.968Z,8.40
2019-04-28T03:03:05.171Z,8.40
2019-04-28T03:05:33.387Z,8.40
2019-04-28T03:08:01.335Z,8.40
2019-04-28T03:10:31.100Z,8.30
2019-04-28T03:13:00.791Z,8.30
2019-04-28T03:15:26.777Z,8.30
2019-04-28T03:17:54.859Z,8.30
2019-04-28T03:20:22.019Z,8.30
2019-04-28T03:22:51.089Z,8.30
2019-04-28T03:25:20.799Z,8.30
2019-04-28T03:28:04.838Z,8.20
2019-04-28T03:30:54.002Z,8.30
2019-04-28T03:33:25.704Z,8.30
2019-04-28T03:35:53.521Z,8.30
2019-04-28T03:38:21.359Z,8.30
2019-04-28T03:40:51.282Z,8.30
2019-04-28T03:43:21.000Z,8.30
2019-04-28T03:45:51.739Z,8.30
2019-04-28T03:48:21.112Z,8.40
2019-04-28T03:50:51.184Z,8.40
2019-04-28T03:53:17.458Z,8.30
2019-04-28T03:55:44.636Z,8.30
2019-04-28T03:58:11.878Z,8.30
2019-04-28T04:00:40.817Z,8.30
2019-04-28T04:03:10.908Z,8.30
2019-04-28T04:05:40.615Z,8.30
2019-04-28T04:08:11.020Z,8.20
2019-04-28T04:10:42.279Z,8.20
2019-04-28T04:13:11.277Z,8.20
2019-04-28T04:15:49.663Z,8.20
2019-04-28T04:18:23.273Z,8.10
2019-04-28T04:20:51.433Z,8.00
2019-04-28T04:23:22.800Z,8.00
2019-04-28T04:25:48.156Z,8.00
2019-04-28T04:28:15.362Z,8.00
2019-04-28T04:30:42.456Z,8.00
2019-04-28T04:33:11.478Z,8.00
2019-04-28T04:35:43.134Z,8.00
2019-04-28T04:38:10.274Z,8.00
2019-04-28T04:40:36.838Z,7.90
2019-04-28T04:43:04.178Z,7.80
2019-04-28T04:45:31.502Z,7.80
2019-04-28T04:48:00.759Z,7.80
2019-04-28T04:50:28.174Z,7.80
2019-04-28T04:52:55.325Z,7.80
2019-04-28T04:55:22.694Z,7.70
2019-04-28T04:57:50.956Z,7.60
2019-04-28T05:00:22.577Z,7.60
2019-04-28T05:02:57.397Z,7.60
2019-04-28T05:05:26.316Z,7.60
2019-04-28T05:07:53.456Z,7.50
2019-04-28T05:10:20.716Z,7.50
2019-04-28T05:12:47.996Z,7.60
2019-04-28T05:15:15.037Z,7.60
2019-04-28T05:17:42.096Z,7.50
2019-04-28T05:20:10.395Z,7.60
2019-04-28T05:22:40.030Z,7.60
2019-04-28T05:25:11.856Z,7.70
2019-04-28T05:27:39.903Z,7.70
2019-04-28T05:30:10.390Z,8.10
2019-04-28T05:32:44.655Z,8.50
2019-04-28T05:35:07.136Z,9.10
2019-04-28T05:37:34.288Z,9.70
2019-04-28T05:40:02.990Z,10.00
2019-04-28T05:42:30.259Z,10.00
2019-04-28T05:44:57.718Z,10.50
2019-04-28T05:47:24.816Z,10.90
2019-04-28T05:50:10.643Z,10.80
2019-04-28T05:52:55.716Z,10.30
2019-04-28T05:55:24.576Z,9.80
2019-04-28T05:58:09.944Z,9.40
2019-04-28T06:00:44.537Z,9.30
2019-04-28T06:03:22.336Z,9.00
2019-04-28T06:05:49.737Z,8.80
2019-04-28T06:08:34.016Z,8.60
2019-04-28T06:11:02.956Z,8.60
2019-04-28T06:13:30.363Z,8.60
2019-04-28T06:15:59.850Z,8.70
2019-04-28T06:18:27.115Z,8.70
2019-04-28T06:20:55.250Z,8.80
2019-04-28T06:23:22.415Z,8.90
2019-04-28T06:25:50.070Z,9.10
2019-04-28T06:28:17.096Z,9.20
2019-04-28T06:30:44.219Z,9.20
2019-04-28T06:33:11.619Z,9.20
2019-04-28T06:35:38.784Z,9.20
2019-04-28T06:38:06.116Z,9.10
2019-04-28T06:40:34.475Z,9.10
2019-04-28T06:43:01.576Z,9.20
2019-04-28T06:45:28.636Z,9.30
2019-04-28T06:47:55.775Z,9.40
2019-04-28T06:50:23.063Z,9.60
2019-04-28T06:52:50.221Z,9.90
2019-04-28T06:55:17.335Z,10.00
2019-04-28T06:57:44.536Z,10.10
2019-04-28T07:00:13.220Z,10.00
2019-04-28T07:02:40.640Z,9.90
2019-04-28T07:05:09.376Z,9.90
2019-04-28T07:07:36.484Z,9.90
2019-04-28T07:10:06.450Z,9.80
2019-04-28T07:12:33.463Z,10.00
2019-04-28T07:15:00.599Z,10.30
2019-04-28T07:17:27.756Z,10.30
2019-04-28T07:19:56.669Z,10.30
2019-04-28T07:22:28.156Z,10.30
2019-04-28T07:24:55.696Z,10.20
2019-04-28T07:27:22.876Z,10.20
2019-04-28T07:29:50.041Z,10.40
2019-04-28T07:32:17.216Z,10.60
2019-04-28T07:34:44.576Z,11.00
2019-04-28T07:37:11.717Z,11.10
2019-04-28T07:39:38.856Z,11.20
2019-04-28T07:42:05.942Z,11.40
2019-04-28T07:44:34.243Z,11.90
2019-04-28T07:47:01.476Z,12.00
2019-04-28T07:49:28.575Z,12.00
2019-04-28T07:51:57.414Z,11.70
2019-04-28T07:54:24.976Z,11.30
2019-04-28T07:56:52.135Z,11.10
2019-04-28T07:59:20.456Z,10.90
2019-04-28T08:01:47.755Z,10.70
2019-04-28T08:04:15.861Z,10.70
2019-04-28T08:06:42.976Z,11.10
2019-04-28T08:09:14.655Z,11.30
2019-04-28T08:11:41.715Z,11.90
2019-04-28T08:14:08.796Z,12.10
2019-04-28T08:16:35.960Z,12.10
2019-04-28T08:19:03.134Z,11.90
2019-04-28T08:21:30.258Z,11.50
2019-04-28T08:23:57.373Z,11.20
2019-04-28T08:26:24.523Z,11.00
2019-04-28T08:28:51.663Z,10.60
2019-04-28T08:31:20.710Z,10.10
2019-04-28T08:34:01.732Z,9.80
2019-04-28T08:36:20.024Z,9.80
2019-04-28T08:38:48.323Z,9.80
2019-04-28T08:41:15.423Z,9.80
2019-04-28T08:43:42.542Z,9.80
2019-04-28T08:46:09.583Z,9.80
2019-04-28T08:48:36.682Z,9.70
2019-04-28T08:51:04.043Z,9.70
2019-04-28T08:53:31.049Z,9.70
2019-04-28T08:55:59.083Z,9.80
2019-04-28T08:58:26.204Z,9.80
2019-04-28T09:00:53.443Z,9.90
2019-04-28T09:03:20.523Z,9.90
2019-04-28T09:05:47.623Z,9.90
2019-04-28T09:08:14.883Z,9.90
2019-04-28T09:10:42.025Z,9.90
2019-04-28T09:13:09.163Z,9.90
2019-04-28T09:15:36.354Z,10.00
2019-04-28T09:18:03.882Z,10.10
2019-04-28T09:20:30.921Z,10.20
2019-04-28T09:22:58.078Z,10.40
2019-04-28T09:25:25.238Z,10.50
2019-04-28T09:27:52.375Z,10.60
2019-04-28T09:30:19.629Z,10.80
2019-04-28T09:32:46.778Z,11.00
2019-04-28T09:35:13.920Z,11.10
2019-04-28T09:37:41.573Z,11.00
2019-04-28T09:40:11.062Z,11.20
2019-04-28T09:42:39.956Z,11.40
2019-04-28T09:45:09.239Z,11.40
2019-04-28T09:47:37.487Z,11.40
2019-04-28T09:50:05.752Z,11.40
2019-04-28T09:52:32.967Z,11.20
2019-04-28T09:55:00.424Z,11.00
2019-04-28T09:57:27.680Z,11.10
2019-04-28T09:59:54.841Z,11.10
2019-04-28T10:02:22.199Z,11.40
2019-04-28T10:04:49.437Z,11.80
2019-04-28T10:07:17.900Z,11.80
2019-04-28T10:09:45.044Z,12.10
2019-04-28T10:12:12.145Z,12.30
2019-04-28T10:14:39.726Z,12.30
2019-04-28T10:17:07.046Z,12.30
2019-04-28T10:19:34.178Z,12.20
2019-04-28T10:22:01.637Z,12.40
2019-04-28T10:24:29.533Z,12.60
2019-04-28T10:26:56.752Z,12.50
2019-04-28T10:29:24.154Z,12.40
2019-04-28T10:31:51.853Z,12.10
2019-04-28T10:34:18.900Z,12.00
2019-04-28T10:36:47.898Z,12.00
2019-04-28T10:39:28.863Z,12.10
2019-04-28T10:41:56.792Z,12.00
2019-04-28T10:44:25.218Z,11.80
2019-04-28T10:46:52.601Z,11.70
2019-04-28T10:49:20.088Z,11.70
2019-04-28T10:51:58.822Z,11.70
2019-04-28T10:54:16.267Z,11.90
2019-04-28T10:56:43.422Z,11.90
2019-04-28T10:59:10.771Z,12.10
2019-04-28T11:01:38.042Z,12.30
2019-04-28T11:04:23.423Z,12.20
2019-04-28T11:07:14.103Z,12.10
2019-04-28T11:10:08.392Z,12.10
2019-04-28T11:12:35.539Z,11.80
2019-04-28T11:15:07.690Z,11.40
2019-04-28T11:17:34.950Z,11.10
2019-04-28T11:20:02.391Z,11.00
2019-04-28T11:22:29.708Z,10.90
2019-04-28T11:24:57.221Z,11.00
2019-04-28T11:27:24.845Z,11.10
2019-04-28T11:29:52.027Z,11.20
2019-04-28T11:32:19.302Z,11.50
2019-04-28T11:35:00.448Z,11.50
2019-04-28T11:37:27.684Z,11.50
2019-04-28T11:39:54.846Z,11.60
2019-04-28T11:42:23.339Z,11.70
2019-04-28T11:44:51.383Z,11.70
2019-04-28T11:47:20.306Z,11.70
2019-04-28T11:49:47.440Z,11.60
2019-04-28T11:52:25.539Z,11.70
2019-04-28T11:54:52.699Z,11.80
2019-04-28T11:57:19.960Z,11.80
2019-04-28T11:59:47.200Z,11.80
2019-04-28T12:02:14.440Z,11.80
2019-04-28T12:04:41.481Z,11.80
2019-04-28T12:07:10.080Z,11.80
2019-04-28T12:09:39.283Z,11.80
2019-04-28T12:12:09.700Z,11.90
2019-04-28T12:14:38.564Z,11.90
2019-04-28T12:17:25.240Z,12.00
2019-04-28T12:19:54.400Z,12.10
2019-04-28T12:22:21.647Z,12.30
2019-04-28T12:24:50.119Z,12.50
2019-04-28T12:27:17.440Z,12.70
2019-04-28T12:29:45.968Z,12.70
2019-04-28T12:32:13.102Z,13.00
2019-04-28T12:34:41.593Z,13.20
2019-04-28T12:37:08.842Z,13.20
2019-04-28T12:39:35.974Z,13.20
2019-04-28T12:42:03.334Z,13.10
2019-04-28T12:44:30.621Z,13.20
2019-04-28T12:46:57.758Z,13.30
2019-04-28T12:49:29.513Z,13.30
2019-04-28T12:51:57.992Z,13.40
2019-04-28T12:54:27.175Z,13.50
2019-04-28T12:56:54.433Z,13.60
2019-04-28T12:59:23.313Z,13.90
2019-04-28T13:02:04.273Z,13.80
2019-04-28T13:04:42.213Z,14.30
2019-04-28T13:07:09.600Z,14.70
2019-04-28T13:09:36.741Z,14.90
2019-04-28T13:12:05.241Z,14.90
2019-04-28T13:14:32.341Z,14.30
2019-04-28T13:16:59.642Z,14.00
2019-04-28T13:19:26.740Z,14.10
2019-04-28T13:21:54.074Z,14.30
2019-04-28T13:24:21.433Z,14.60
2019-04-28T13:26:48.699Z,14.60
2019-04-28T13:29:15.920Z,14.60
2019-04-28T13:31:43.180Z,14.40
2019-04-28T13:34:12.072Z,14.20
2019-04-28T13:36:39.189Z,14.00
2019-04-28T13:39:09.918Z,13.80
2019-04-28T13:41:37.516Z,13.90
2019-04-28T13:44:06.858Z,14.10
2019-04-28T13:46:36.044Z,14.30
2019-04-28T13:49:05.641Z,14.50
2019-04-28T13:51:32.983Z,14.50
2019-04-28T13:54:01.963Z,14.50
2019-04-28T13:56:30.471Z,14.70
2019-04-28T13:58:59.523Z,14.60
2019-04-28T14:01:28.410Z,14.50
2019-04-28T14:03:57.651Z,14.50
2019-04-28T14:06:30.775Z,14.60
2019-04-28T14:08:58.074Z,14.60
2019-04-28T14:11:25.248Z,15.00
2019-04-28T14:13:52.566Z,15.20
2019-04-28T14:16:19.715Z,15.30
2019-04-28T14:18:47.102Z,15.00
2019-04-28T14:21:14.471Z,14.80
2019-04-28T14:23:41.723Z,14.50
2019-04-28T14:26:08.972Z,14.20
2019-04-28T14:28:36.741Z,14.00
2019-04-28T14:31:04.251Z,14.40
2019-04-28T14:33:31.492Z,14.50
2019-04-28T14:35:58.770Z,14.40
2019-04-28T14:38:26.673Z,14.60
2019-04-28T14:40:54.086Z,14.40
2019-04-28T14:43:21.314Z,14.30
2019-04-28T14:45:48.388Z,14.50
2019-04-28T14:48:16.794Z,14.70
2019-04-28T14:50:44.016Z,14.90
2019-04-28T14:53:12.769Z,15.20
2019-04-28T14:55:40.096Z,15.10
2019-04-28T14:58:09.438Z,15.20
2019-04-28T15:00:38.424Z,15.10
2019-04-28T15:03:16.929Z,15.10
2019-04-28T15:06:02.946Z,15.30
2019-04-28T15:08:31.914Z,15.30
2019-04-28T15:11:01.326Z,15.20
2019-04-28T15:13:28.734Z,15.10
2019-04-28T15:15:56.538Z,15.20
2019-04-28T15:18:23.839Z,15.00
2019-04-28T15:20:53.435Z,15.10
2019-04-28T15:23:20.956Z,15.10
2019-04-28T15:25:48.079Z,15.20
2019-04-28T15:28:15.253Z,15.20
2019-04-28T15:30:42.539Z,15.20
2019-04-28T15:33:09.955Z,15.30
2019-04-28T15:35:38.296Z,15.50
2019-04-28T15:38:05.492Z,15.70
2019-04-28T15:40:33.752Z,15.60
2019-04-28T15:43:00.832Z,15.70
2019-04-28T15:45:29.272Z,15.70
2019-04-28T15:47:56.398Z,15.40
2019-04-28T15:50:25.255Z,15.20
2019-04-28T15:52:52.572Z,15.00
2019-04-28T15:55:24.632Z,15.00
2019-04-28T15:57:51.700Z,15.10
2019-04-28T16:00:20.061Z,15.00
2019-04-28T16:02:47.211Z,15.10
2019-04-28T16:05:14.492Z,15.10
2019-04-28T16:07:41.671Z,15.00
2019-04-28T16:10:10.354Z,15.00
2019-04-28T16:12:37.962Z,14.90
2019-04-28T16:15:07.403Z,14.90
2019-04-28T16:17:34.387Z,15.00
2019-04-28T16:20:02.591Z,15.20
2019-04-28T16:22:29.748Z,15.20
2019-04-28T16:24:57.848Z,15.30
2019-04-28T16:27:24.988Z,15.20
2019-04-28T16:29:53.456Z,15.20
2019-04-28T16:32:20.668Z,15.00
2019-04-28T16:34:48.068Z,14.90
2019-04-28T16:37:15.147Z,14.70
2019-04-28T16:39:43.747Z,14.30
2019-04-28T16:42:18.387Z,14.20
2019-04-28T16:44:49.167Z,14.10
2019-04-28T16:47:21.468Z,14.00
2019-04-28T16:49:48.633Z,14.00
2019-04-28T16:52:16.088Z,13.90
2019-04-28T16:54:43.549Z,13.90
2019-04-28T16:57:15.308Z,13.90
2019-04-28T16:59:50.068Z,13.90
2019-04-28T17:02:21.788Z,14.10
2019-04-28T17:04:48.908Z,14.00
2019-04-28T17:07:16.191Z,13.90
2019-04-28T17:09:43.627Z,13.80
2019-04-28T17:12:12.248Z,13.70
2019-04-28T17:14:39.798Z,13.50
2019-04-28T17:17:07.249Z,13.40
2019-04-28T17:19:34.807Z,13.20
2019-04-28T17:22:02.053Z,13.10
2019-04-28T17:24:29.187Z,13.10
2019-04-28T17:26:56.348Z,12.90
2019-04-28T17:29:23.810Z,12.80
2019-04-28T17:31:50.949Z,12.60
2019-04-28T17:34:18.608Z,12.50
2019-04-28T17:36:47.469Z,12.40
2019-04-28T17:39:16.088Z,12.30
2019-04-28T17:41:43.467Z,12.20
2019-04-28T17:44:10.687Z,12.00
2019-04-28T17:46:37.948Z,12.00
2019-04-28T17:49:05.310Z,12.00
2019-04-28T17:51:33.302Z,11.90
2019-04-28T17:54:00.355Z,11.80
2019-04-28T17:56:27.515Z,11.80
2019-04-28T17:58:54.627Z,11.70
2019-04-28T18:01:34.047Z,11.60
2019-04-28T18:04:02.967Z,11.50
2019-04-28T18:06:32.033Z,11.50
2019-04-28T18:08:59.150Z,11.40
2019-04-28T18:11:26.407Z,11.30
2019-04-28T18:13:53.538Z,11.20
2019-04-28T18:16:34.244Z,11.10
2019-04-28T18:19:05.986Z,11.10
2019-04-28T18:21:33.465Z,11.00
2019-04-28T18:24:00.784Z,10.90
2019-04-28T18:26:29.287Z,10.80
2019-04-28T18:28:56.750Z,10.70
2019-04-28T18:34:30.979Z,10.60
2019-04-28T18:37:02.925Z,10.50
2019-04-28T18:39:48.631Z,10.50
2019-04-28T18:42:17.630Z,10.50
2019-04-28T18:44:45.385Z,10.40
2019-04-28T18:47:13.865Z,10.40
2019-04-28T18:49:40.931Z,10.40
2019-04-28T18:52:09.184Z,10.40
2019-04-28T18:54:36.265Z,10.30
2019-04-28T18:57:03.591Z,10.30
2019-04-28T18:59:31.480Z,10.30
2019-04-28T19:02:09.567Z,10.20
2019-04-28T19:04:37.285Z,10.20
2019-04-28T19:07:06.006Z,10.10
2019-04-28T19:09:35.124Z,10.20
2019-04-28T19:12:20.966Z,10.10
2019-04-28T19:14:59.305Z,10.20
2019-04-28T19:17:31.345Z,10.10
2019-04-28T19:19:58.485Z,10.10
2019-04-28T19:22:25.965Z,10.10
2019-04-28T19:24:53.105Z,10.00
2019-04-28T19:27:20.490Z,10.00
2019-04-28T19:29:47.805Z,10.00
2019-04-28T19:32:15.385Z,9.90
2019-04-28T19:34:42.524Z,9.80
2019-04-28T19:37:09.765Z,9.80
2019-04-28T19:39:37.124Z,9.80
2019-04-28T19:42:05.888Z,9.80
2019-04-28T19:44:33.665Z,9.70
2019-04-28T19:47:00.827Z,9.60
2019-04-28T19:49:28.064Z,9.60
2019-04-28T19:51:56.546Z,9.60
2019-04-28T19:54:25.644Z,9.60
2019-04-28T19:56:54.845Z,9.60
2019-04-28T19:59:23.725Z,9.60
2019-04-28T20:01:50.985Z,9.60
2019-04-28T20:04:19.465Z,9.60
2019-04-28T20:06:46.909Z,9.60
2019-04-28T20:09:14.065Z,9.60
2019-04-28T20:11:41.225Z,9.60
2019-04-28T20:14:08.467Z,9.50
2019-04-28T20:16:35.747Z,9.50
2019-04-28T20:19:03.065Z,9.50
2019-04-28T20:21:30.324Z,9.50
2019-04-28T20:23:57.442Z,9.50
2019-04-28T20:26:24.666Z,9.50
2019-04-28T20:28:53.005Z,9.40
2019-04-28T20:31:20.126Z,9.50
2019-04-28T20:33:48.505Z,9.40
2019-04-28T20:36:21.207Z,9.40
2019-04-28T20:38:50.306Z,9.40
2019-04-28T20:41:25.439Z,9.30
2019-04-28T20:43:54.121Z,9.30
2019-04-28T20:46:21.304Z,9.30
2019-04-28T20:48:48.722Z,9.30
2019-04-28T20:51:15.860Z,9.20
2019-04-28T20:53:42.966Z,9.20
2019-04-28T20:56:10.180Z,9.20
2019-04-28T20:58:37.479Z,9.10
2019-04-28T21:01:04.679Z,9.10
2019-04-28T21:03:33.164Z,9.00
2019-04-28T21:06:00.619Z,9.00
2019-04-28T21:08:28.159Z,9.00
2019-04-28T21:10:55.341Z,9.00
2019-04-28T21:13:22.560Z,9.00
2019-04-28T21:15:49.714Z,9.00
2019-04-28T21:18:18.509Z,9.00
2019-04-28T21:20:45.870Z,9.00
2019-04-28T21:23:13.052Z,9.00
2019-04-28T21:25:40.450Z,9.00
2019-04-28T21:28:07.630Z,9.00
2019-04-28T21:30:34.981Z,9.00
2019-04-28T21:33:02.318Z,9.00
2019-04-28T21:35:29.660Z,9.00
2019-04-28T21:37:58.138Z,9.00
2019-04-28T21:40:26.318Z,8.90
2019-04-28T21:42:58.224Z,8.90
2019-04-28T21:45:27.277Z,8.90
2019-04-28T21:47:54.518Z,8.90
2019-04-28T21:50:21.777Z,8.90
2019-04-28T21:52:48.922Z,8.90
2019-04-28T21:55:16.623Z,8.90
2019-04-28T21:57:43.743Z,8.90
2019-04-28T22:00:14.022Z,8.80
2019-04-28T22:02:41.242Z,8.80
2019-04-28T22:05:08.842Z,8.80
2019-04-28T22:07:37.682Z,8.80
2019-04-28T22:10:05.922Z,8.80
2019-04-28T22:12:33.067Z,8.70
2019-04-28T22:15:00.543Z,8.80
2019-04-28T22:17:28.002Z,8.80
2019-04-28T22:19:55.562Z,8.80
2019-04-28T22:22:23.202Z,8.80
2019-04-28T22:24:55.163Z,8.70
2019-04-28T22:27:24.282Z,8.70
2019-04-28T22:29:52.642Z,8.60
2019-04-28T22:32:20.021Z,8.60
2019-04-28T22:34:48.781Z,8.50
2019-04-28T22:37:16.161Z,8.40
2019-04-28T22:39:47.052Z,8.40
2019-04-28T22:42:14.021Z,8.30
2019-04-28T22:44:41.161Z,8.20
2019-04-28T22:47:08.623Z,8.10
2019-04-28T22:49:37.262Z,8.00
2019-04-28T22:52:04.762Z,8.00
2019-04-28T22:54:48.870Z,7.90
2019-04-28T22:57:32.966Z,7.80
2019-04-28T23:00:00.741Z,7.80
2019-04-28T23:02:29.915Z,7.70
2019-04-28T23:05:05.555Z,7.60
2019-04-28T23:07:32.733Z,7.60
2019-04-28T23:09:59.954Z,7.50
2019-04-28T23:12:27.414Z,7.40
2019-04-28T23:14:55.895Z,7.40
2019-04-28T23:17:23.496Z,7.30
2019-04-28T23:19:50.715Z,7.30
2019-04-28T23:22:19.694Z,7.30
2019-04-28T23:24:46.974Z,7.30
2019-04-28T23:27:14.303Z,7.30
2019-04-28T23:29:42.895Z,7.30
2019-04-28T23:32:27.554Z,7.30
2019-04-28T23:34:54.834Z,7.30
2019-04-28T23:37:22.394Z,7.20
2019-04-28T23:39:49.595Z,7.20
2019-04-28T23:42:33.755Z,7.20
2019-04-28T23:45:00.835Z,7.10
2019-04-28T23:47:28.055Z,7.10
2019-04-28T23:49:55.414Z,7.10
2019-04-28T23:52:24.396Z,7.00
2019-04-28T23:54:56.353Z,7.00
2019-04-28T23:57:24.014Z,7.00
2019-04-28T23:59:51.474Z,7.00
